Time;durP1;ratioP1;P1;durP2;ratioP2;P2;SDS_P1;SDS_P2;PMS_P1;PMS_P2;Temp;Humidity;BMP_temperature;BMP_pressure;BME280_temperature;BME280_humidity;BME280_pressure;Samples;Min_cycle;Max_cycle;Signal;HPM_P1;HPM_P2
2022/04/18 00:00:22;;;;;;;8.83;7.30;;;10.70;99.90;;;;;;5045502;28;20661;-80
2022/04/18 00:02:49;;;;;;;10.30;7.20;;;10.60;99.90;;;;;;5044091;28;20210;-80
2022/04/18 00:05:17;;;;;;;9.13;7.03;;;10.60;99.90;;;;;;5044742;28;20218;-81
2022/04/18 00:07:44;;;;;;;10.10;7.53;;;10.50;99.90;;;;;;5044980;28;20206;-80
2022/04/18 00:10:11;;;;;;;9.87;7.40;;;10.40;99.90;;;;;;5044590;28;20194;-81
2022/04/18 00:12:38;;;;;;;11.37;7.70;;;10.40;99.90;;;;;;5044233;28;20704;-80
2022/04/18 00:15:05;;;;;;;9.37;6.77;;;10.40;99.90;;;;;;5045434;28;20201;-80
2022/04/18 00:17:32;;;;;;;9.50;6.27;;;10.30;99.90;;;;;;5044329;28;20205;-81
2022/04/18 00:19:59;;;;;;;8.47;6.40;;;10.30;99.90;;;;;;5044990;28;20236;-79
2022/04/18 00:22:27;;;;;;;9.93;7.20;;;10.20;99.90;;;;;;5057969;28;20209;-80
2022/04/18 00:24:54;;;;;;;8.93;7.13;;;10.20;99.90;;;;;;5064429;28;20297;-80
2022/04/18 00:27:21;;;;;;;8.93;7.53;;;10.20;99.90;;;;;;5064158;28;20232;-81
2022/04/18 00:29:49;;;;;;;10.10;6.70;;;10.10;99.90;;;;;;5059499;28;20206;-80
2022/04/18 00:32:16;;;;;;;7.43;5.90;;;10.10;99.90;;;;;;5044146;28;20275;-80
2022/04/18 00:34:43;;;;;;;11.13;7.50;;;10.00;99.90;;;;;;5045240;28;20208;-80
2022/04/18 00:37:10;;;;;;;10.80;7.60;;;10.00;99.90;;;;;;5043497;28;20209;-80
2022/04/18 00:39:38;;;;;;;11.57;7.63;;;9.90;99.90;;;;;;5043622;28;20217;-79
2022/04/18 00:42:05;;;;;;;8.47;6.13;;;9.90;99.90;;;;;;5044321;28;20202;-79
2022/04/18 00:44:32;;;;;;;8.27;6.97;;;9.90;99.90;;;;;;5043372;28;20943;-80
2022/04/18 00:46:59;;;;;;;8.23;6.70;;;9.80;99.90;;;;;;5044022;28;20252;-81
2022/04/18 00:49:26;;;;;;;8.23;6.97;;;9.80;99.90;;;;;;5057335;28;20241;-79
2022/04/18 00:51:53;;;;;;;10.23;7.60;;;9.70;99.90;;;;;;5064011;28;20214;-80
2022/04/18 00:54:20;;;;;;;10.97;6.77;;;9.70;99.90;;;;;;5062499;28;20297;-80
2022/04/18 00:56:48;;;;;;;8.97;7.40;;;9.70;99.90;;;;;;5062941;28;20779;-80
2022/04/18 00:59:15;;;;;;;8.40;6.97;;;9.60;99.90;;;;;;5062518;28;20307;-80
2022/04/18 01:01:42;;;;;;;8.30;6.73;;;9.60;99.90;;;;;;5060431;28;20512;-79
2022/04/18 01:04:09;;;;;;;8.23;6.97;;;9.60;99.90;;;;;;5043980;28;20210;-81
2022/04/18 01:06:36;;;;;;;7.37;6.63;;;9.50;99.90;;;;;;5043539;28;20511;-82
2022/04/18 01:09:03;;;;;;;9.43;7.00;;;9.50;99.90;;;;;;5044061;28;20201;-79
2022/04/18 01:11:30;;;;;;;9.43;6.97;;;9.40;99.90;;;;;;5044167;28;20225;-80
2022/04/18 01:14:01;;;;;;;10.00;7.43;;;9.40;99.90;;;;;;5043747;28;20222;-80
2022/04/18 01:16:29;;;;;;;9.60;7.37;;;9.40;99.90;;;;;;5044768;28;20206;-80
2022/04/18 01:18:57;;;;;;;9.37;7.17;;;9.30;99.90;;;;;;5062046;28;20217;-81
2022/04/18 01:21:26;;;;;;;11.47;7.27;;;9.30;99.90;;;;;;5066751;28;20644;-81
2022/04/18 01:23:54;;;;;;;10.93;7.97;;;9.30;99.90;;;;;;5068200;28;20290;-79
2022/04/18 01:29:08;;;;;;;8.20;7.10;;;9.30;99.90;;;;;;5047306;28;20224;-80
2022/04/18 01:31:38;;;;;;;10.20;7.50;;;9.30;99.90;;;;;;5048156;28;20244;-81
2022/04/18 01:34:07;;;;;;;9.97;8.00;;;9.30;99.90;;;;;;5047932;28;20213;-80
2022/04/18 01:36:35;;;;;;;9.20;7.73;;;9.20;99.90;;;;;;5047695;28;20202;-81
2022/04/18 01:39:02;;;;;;;13.20;8.63;;;9.20;99.90;;;;;;5047174;28;20201;-80
2022/04/18 01:41:29;;;;;;;10.27;7.60;;;9.20;99.90;;;;;;5057900;28;20264;-82
2022/04/18 01:43:56;;;;;;;10.17;7.10;;;9.20;99.90;;;;;;5047950;28;20206;-81
2022/04/18 01:46:22;;;;;;;10.23;7.00;;;9.20;99.90;;;;;;5047048;28;20281;-80
2022/04/18 01:48:51;;;;;;;9.87;7.97;;;9.10;99.90;;;;;;5055635;28;20236;-80
2022/04/18 01:51:19;;;;;;;11.00;8.27;;;9.10;99.90;;;;;;5054427;28;20244;-80
2022/04/18 01:53:47;;;;;;;9.00;7.33;;;9.00;99.90;;;;;;5046414;28;20241;-81
2022/04/18 01:56:14;;;;;;;10.30;7.80;;;9.00;99.90;;;;;;5046055;28;20214;-79
2022/04/18 01:58:41;;;;;;;9.33;7.60;;;8.90;99.90;;;;;;5047105;28;20202;-79
2022/04/18 02:01:08;;;;;;;9.53;7.10;;;8.90;99.90;;;;;;5046562;28;20226;-80
2022/04/18 02:03:35;;;;;;;10.20;7.23;;;8.80;99.90;;;;;;5046542;28;20202;-81
2022/04/18 02:06:02;;;;;;;10.10;6.57;;;8.80;99.90;;;;;;5046757;28;20309;-81
2022/04/18 02:08:28;;;;;;;8.37;7.37;;;8.80;99.90;;;;;;5044930;28;20521;-81
2022/04/18 02:10:57;;;;;;;8.43;6.60;;;8.70;99.90;;;;;;5045524;28;20201;-80
2022/04/18 02:13:25;;;;;;;12.10;6.87;;;8.70;99.90;;;;;;5046478;28;20217;-78
2022/04/18 02:15:52;;;;;;;10.03;6.90;;;8.70;99.90;;;;;;5047624;28;20204;-81
2022/04/18 02:18:19;;;;;;;7.97;6.17;;;8.70;99.90;;;;;;5046732;28;20491;-80
2022/04/18 02:20:46;;;;;;;7.50;6.10;;;8.80;99.90;;;;;;5046010;28;20229;-79
2022/04/18 02:23:13;;;;;;;7.73;6.20;;;8.80;99.90;;;;;;5047538;28;20205;-80
2022/04/18 02:25:39;;;;;;;10.17;5.97;;;8.80;99.90;;;;;;5046991;28;20197;-80
2022/04/18 02:28:08;;;;;;;9.33;6.27;;;8.90;99.90;;;;;;5046886;28;20213;-81
2022/04/18 02:30:34;;;;;;;7.77;6.20;;;8.90;99.90;;;;;;5044762;28;20201;-80
2022/04/18 02:33:01;;;;;;;7.83;5.60;;;8.90;99.90;;;;;;5045305;28;20209;-81
2022/04/18 02:35:28;;;;;;;6.93;5.60;;;8.90;99.90;;;;;;5044704;28;20620;-82
2022/04/18 02:37:55;;;;;;;7.40;5.80;;;8.90;99.90;;;;;;5044554;28;20233;-81
2022/04/18 02:40:23;;;;;;;9.17;6.20;;;9.00;99.90;;;;;;5044122;28;20222;-81
2022/04/18 02:42:50;;;;;;;8.10;5.70;;;9.00;99.90;;;;;;5045592;28;20859;-79
2022/04/18 02:45:19;;;;;;;7.23;5.57;;;9.00;99.90;;;;;;5044789;28;20669;-79
2022/04/18 02:47:46;;;;;;;6.70;5.57;;;9.00;99.90;;;;;;5045002;28;20229;-80
2022/04/18 02:50:13;;;;;;;6.73;5.30;;;9.00;99.90;;;;;;5048017;28;20330;-84
2022/04/18 02:52:40;;;;;;;7.87;5.50;;;9.10;99.90;;;;;;5044540;28;20209;-81
2022/04/18 02:55:11;;;;;;;9.07;6.27;;;9.20;99.90;;;;;;5045390;28;20210;-80
2022/04/18 02:57:38;;;;;;;7.20;5.73;;;9.30;99.90;;;;;;5045214;28;20210;-78
2022/04/18 03:00:06;;;;;;;7.57;6.00;;;9.40;99.90;;;;;;5064597;28;20217;-79
2022/04/18 03:02:35;;;;;;;8.30;5.97;;;9.50;99.90;;;;;;5064963;28;20624;-80
2022/04/18 03:05:01;;;;;;;8.40;5.30;;;9.50;99.90;;;;;;5064321;28;20205;-78
2022/04/18 03:07:28;;;;;;;7.77;5.53;;;9.50;99.90;;;;;;5060437;28;20221;-80
2022/04/18 03:09:55;;;;;;;8.13;5.50;;;9.60;99.90;;;;;;5045346;28;20531;-79
2022/04/18 03:12:22;;;;;;;7.17;5.77;;;9.60;99.90;;;;;;5044828;28;20201;-80
2022/04/18 03:14:49;;;;;;;7.07;5.63;;;9.50;99.90;;;;;;5045041;28;20210;-80
2022/04/18 03:17:16;;;;;;;8.00;6.33;;;9.50;99.90;;;;;;5045839;28;20206;-80
2022/04/18 03:19:44;;;;;;;6.07;5.20;;;9.60;99.90;;;;;;5043898;28;20201;-78
2022/04/18 03:22:11;;;;;;;7.17;5.43;;;9.50;99.90;;;;;;5044779;28;20202;-78
2022/04/18 03:24:38;;;;;;;7.57;5.50;;;9.60;99.90;;;;;;5062382;28;20209;-79
2022/04/18 03:27:05;;;;;;;7.30;5.70;;;9.60;99.90;;;;;;5070995;28;20545;-80
2022/04/18 03:29:32;;;;;;;6.87;5.47;;;9.50;99.90;;;;;;5076680;28;20200;-81
2022/04/18 03:31:59;;;;;;;9.40;6.40;;;9.50;99.90;;;;;;5065502;28;20647;-82
2022/04/18 03:34:26;;;;;;;6.83;5.40;;;9.50;99.90;;;;;;5073253;28;20205;-79
2022/04/18 03:39:51;;;;;;;7.83;6.00;;;9.50;99.90;;;;;;5072272;28;20237;-78
2022/04/18 03:42:19;;;;;;;7.80;5.90;;;9.40;99.90;;;;;;5074144;28;20947;-78
2022/04/18 03:44:47;;;;;;;10.27;6.00;;;9.40;99.90;;;;;;5079268;28;20273;-79
2022/04/18 03:47:15;;;;;;;7.17;5.67;;;9.40;99.90;;;;;;5073467;28;20658;-80
2022/04/18 03:49:42;;;;;;;6.73;5.33;;;9.40;99.90;;;;;;5072587;28;20240;-80
2022/04/18 03:52:11;;;;;;;9.57;5.90;;;9.30;99.90;;;;;;5062952;28;20205;-80
2022/04/18 03:54:40;;;;;;;7.30;5.77;;;9.30;99.90;;;;;;5071659;28;20212;-81
2022/04/18 03:57:07;;;;;;;6.00;5.40;;;9.20;99.90;;;;;;5076436;28;20302;-80
2022/04/18 03:59:34;;;;;;;7.83;5.87;;;9.20;99.90;;;;;;5069848;28;20556;-82
2022/04/18 04:02:01;;;;;;;12.10;6.27;;;9.10;99.90;;;;;;5052646;28;20244;-79
2022/04/18 04:04:29;;;;;;;9.53;5.47;;;9.10;99.90;;;;;;5061002;28;20217;-79
2022/04/18 04:06:55;;;;;;;6.27;5.53;;;9.10;99.90;;;;;;5044598;28;20936;-78
2022/04/18 04:09:24;;;;;;;8.10;5.70;;;9.00;99.90;;;;;;5042944;28;20201;-81
2022/04/18 04:11:51;;;;;;;6.03;5.30;;;9.10;99.90;;;;;;5044356;28;20201;-80
2022/04/18 04:14:18;;;;;;;7.20;5.23;;;9.10;99.90;;;;;;5044473;28;20224;-82
2022/04/18 04:16:45;;;;;;;8.80;5.50;;;9.20;99.90;;;;;;5045264;28;20202;-82
2022/04/18 04:19:11;;;;;;;7.07;5.50;;;9.20;99.90;;;;;;5056088;28;20469;-82
2022/04/18 04:21:38;;;;;;;7.93;5.30;;;9.20;99.90;;;;;;5064280;28;20228;-80
2022/04/18 04:24:05;;;;;;;7.50;5.70;;;9.20;99.90;;;;;;5064547;28;20209;-80
2022/04/18 04:26:34;;;;;;;7.17;5.37;;;9.20;99.90;;;;;;5050700;28;20217;-82
2022/04/18 04:29:01;;;;;;;6.87;5.40;;;9.20;99.90;;;;;;5044598;28;20853;-81
2022/04/18 04:31:27;;;;;;;6.07;4.80;;;9.10;99.90;;;;;;5049420;28;20246;-81
2022/04/18 04:33:54;;;;;;;7.73;5.47;;;9.20;99.90;;;;;;5064732;28;20213;-81
2022/04/18 04:36:21;;;;;;;7.17;6.10;;;9.10;99.90;;;;;;5064483;28;20298;-79
2022/04/18 04:38:48;;;;;;;5.73;5.13;;;9.10;99.90;;;;;;5057628;28;20504;-81
2022/04/18 04:41:16;;;;;;;7.13;5.17;;;9.10;99.90;;;;;;5044084;28;20225;-81
2022/04/18 04:43:44;;;;;;;6.73;5.17;;;9.10;99.90;;;;;;5043852;28;20645;-81
2022/04/18 04:46:11;;;;;;;7.50;5.47;;;9.10;99.90;;;;;;5044264;28;20216;-81
2022/04/18 04:48:37;;;;;;;7.20;5.30;;;9.10;99.90;;;;;;5043969;28;20245;-80
2022/04/18 04:51:04;;;;;;;7.10;5.93;;;9.00;99.90;;;;;;5044216;28;20222;-81
2022/04/18 04:53:31;;;;;;;6.67;5.50;;;9.00;99.90;;;;;;5047388;28;20206;-81
2022/04/18 04:55:58;;;;;;;7.30;5.23;;;9.10;99.90;;;;;;5048254;28;20217;-82
2022/04/18 04:58:25;;;;;;;5.90;4.87;;;9.10;99.90;;;;;;5047712;28;20198;-80
2022/04/18 05:00:53;;;;;;;7.03;5.30;;;9.00;99.90;;;;;;5048637;28;21210;-82
2022/04/18 05:03:20;;;;;;;6.90;5.13;;;9.00;99.90;;;;;;5048124;28;20297;-81
2022/04/18 05:05:47;;;;;;;7.13;5.03;;;9.00;99.90;;;;;;5046591;28;20206;-82
2022/04/18 05:08:14;;;;;;;5.37;4.83;;;9.10;99.90;;;;;;5047660;28;20201;-81
2022/04/18 05:10:41;;;;;;;10.43;5.30;;;9.10;99.90;;;;;;5048285;28;20206;-80
2022/04/18 05:13:07;;;;;;;6.03;4.77;;;9.10;99.90;;;;;;5047888;28;20325;-81
2022/04/18 05:15:35;;;;;;;5.47;4.50;;;9.10;99.90;;;;;;5047518;28;20209;-82
2022/04/18 05:18:03;;;;;;;7.23;5.00;;;9.10;99.90;;;;;;5048134;28;20198;-81
2022/04/18 05:20:31;;;;;;;8.20;5.03;;;9.10;99.90;;;;;;5046967;28;20205;-81
2022/04/18 05:22:58;;;;;;;5.30;4.80;;;9.10;99.90;;;;;;5048559;28;20210;-81
2022/04/18 05:25:25;;;;;;;6.93;4.87;;;9.10;99.90;;;;;;5048076;28;20202;-80
2022/04/18 05:27:52;;;;;;;5.57;3.97;;;9.20;99.90;;;;;;5047115;28;20202;-81
2022/04/18 05:30:19;;;;;;;7.03;5.03;;;9.30;99.90;;;;;;5047678;28;20579;-79
2022/04/18 05:32:46;;;;;;;5.37;4.60;;;9.30;99.90;;;;;;5046220;28;20205;-78
2022/04/18 05:35:14;;;;;;;5.97;4.40;;;9.30;99.90;;;;;;5046775;28;20205;-81
2022/04/18 05:37:41;;;;;;;6.00;4.70;;;9.30;99.90;;;;;;5060650;28;20588;-80
2022/04/18 05:40:09;;;;;;;5.57;4.50;;;9.40;99.90;;;;;;5067148;28;20229;-81
2022/04/18 05:42:36;;;;;;;4.63;4.20;;;9.40;99.90;;;;;;5061458;28;20355;-82
2022/04/18 05:45:03;;;;;;;6.40;5.10;;;9.40;99.90;;;;;;5048092;28;20209;-81
2022/04/18 05:47:29;;;;;;;6.03;4.70;;;9.50;99.90;;;;;;5047234;28;20214;-81
2022/04/18 05:49:56;;;;;;;5.67;5.03;;;9.50;99.90;;;;;;5057825;28;20245;-83
2022/04/18 05:52:24;;;;;;;7.13;4.70;;;9.50;99.90;;;;;;5047177;28;20289;-81
2022/04/18 05:54:51;;;;;;;6.17;5.10;;;9.50;99.90;;;;;;5045497;28;20221;-79
2022/04/18 05:57:21;;;;;;;7.00;4.87;;;9.50;99.90;;;;;;5045861;28;20198;-78
2022/04/18 05:59:48;;;;;;;5.23;4.70;;;9.60;99.90;;;;;;5045564;28;20210;-77
2022/04/18 06:02:15;;;;;;;7.90;4.70;;;9.70;99.90;;;;;;5044486;28;20226;-80
2022/04/18 06:04:42;;;;;;;6.20;4.50;;;9.70;99.90;;;;;;5045219;28;20206;-82
2022/04/18 06:07:09;;;;;;;7.27;4.57;;;9.70;99.90;;;;;;5047426;28;20202;-82
2022/04/18 06:09:37;;;;;;;7.20;4.90;;;9.80;99.90;;;;;;5046130;28;20212;-83
2022/04/18 06:12:04;;;;;;;4.43;3.97;;;9.90;99.90;;;;;;5046640;28;20504;-83
2022/04/18 06:14:31;;;;;;;7.80;4.67;;;9.90;99.90;;;;;;5046950;28;20202;-80
2022/04/18 06:16:58;;;;;;;5.00;4.50;;;10.00;99.90;;;;;;5046820;28;20198;-80
2022/04/18 06:19:25;;;;;;;5.60;4.33;;;10.10;99.90;;;;;;5047340;28;20209;-81
2022/04/18 06:21:52;;;;;;;4.50;4.10;;;10.20;99.90;;;;;;5046052;28;20237;-80
2022/04/18 06:27:52;;;;;;;5.73;4.20;;;10.30;99.90;;;;;;4971523;28;20228;-80
2022/04/18 06:30:19;;;;;;;5.57;4.47;;;10.40;99.90;;;;;;5066359;28;20236;-83
2022/04/18 06:32:46;;;;;;;4.47;4.03;;;10.40;99.90;;;;;;5066691;28;20205;-80
2022/04/18 06:35:13;;;;;;;4.60;4.10;;;10.50;99.90;;;;;;5051045;28;20213;-80
2022/04/18 06:37:42;;;;;;;6.33;4.17;;;10.60;99.90;;;;;;5047035;28;20265;-81
2022/04/18 06:40:09;;;;;;;8.10;4.03;;;10.60;99.90;;;;;;5047450;28;20320;-79
2022/04/18 06:42:37;;;;;;;5.47;3.80;;;10.70;99.90;;;;;;5043912;28;20232;-81
2022/04/18 06:45:06;;;;;;;5.60;3.90;;;10.80;99.90;;;;;;5046810;28;20194;-81
2022/04/18 06:47:33;;;;;;;4.83;4.00;;;10.90;99.90;;;;;;5047176;28;20226;-80
2022/04/18 06:50:00;;;;;;;5.53;3.90;;;11.00;99.90;;;;;;5064717;28;20247;-81
2022/04/18 06:52:27;;;;;;;8.20;3.67;;;11.10;99.90;;;;;;5066662;28;20275;-80
2022/04/18 06:54:54;;;;;;;4.90;3.67;;;11.20;99.90;;;;;;5067370;28;20201;-79
2022/04/18 06:57:20;;;;;;;5.83;3.90;;;11.30;99.90;;;;;;5056451;28;20661;-78
2022/04/18 06:59:47;;;;;;;6.13;3.60;;;11.40;99.90;;;;;;5060429;28;20204;-79
2022/04/18 07:02:15;;;;;;;5.83;3.90;;;11.60;99.90;;;;;;5065761;28;20232;-82
2022/04/18 07:04:42;;;;;;;6.03;3.70;;;11.80;99.90;;;;;;5065246;28;20197;-82
2022/04/18 07:07:08;;;;;;;4.90;3.60;;;11.90;99.90;;;;;;5063882;28;20205;-81
2022/04/18 07:09:35;;;;;;;5.83;4.10;;;12.10;99.90;;;;;;5066657;28;20742;-82
2022/04/18 07:12:02;;;;;;;5.37;3.70;;;12.30;99.90;;;;;;5063768;28;20503;-78
2022/04/18 07:14:30;;;;;;;6.47;3.47;;;12.60;99.90;;;;;;5047272;28;20518;-80
2022/04/18 07:16:57;;;;;;;4.03;3.23;;;12.80;99.90;;;;;;5048824;28;20311;-81
2022/04/18 07:19:25;;;;;;;5.33;3.57;;;13.00;99.90;;;;;;5044503;28;20245;-80
2022/04/18 07:21:53;;;;;;;4.53;3.80;;;13.30;99.90;;;;;;5045510;28;20233;-80
2022/04/18 07:24:20;;;;;;;4.60;3.30;;;13.60;99.90;;;;;;5053813;28;20493;-81
2022/04/18 07:26:47;;;;;;;5.80;3.50;;;13.90;99.90;;;;;;5054909;28;20201;-81
2022/04/18 07:29:14;;;;;;;4.10;3.70;;;14.30;99.90;;;;;;5045078;28;20508;-83
2022/04/18 07:31:41;;;;;;;3.70;3.37;;;14.70;99.90;;;;;;5045817;28;20206;-83
2022/04/18 07:34:07;;;;;;;3.53;3.13;;;15.00;99.90;;;;;;5044783;28;20614;-78
2022/04/18 07:36:36;;;;;;;3.63;3.23;;;15.20;99.90;;;;;;5043202;28;20198;-78
2022/04/18 07:39:03;;;;;;;3.67;3.27;;;15.40;99.90;;;;;;5044079;28;20228;-80
2022/04/18 07:41:30;;;;;;;3.73;3.17;;;15.80;99.90;;;;;;5042847;28;20252;-79
2022/04/18 07:43:58;;;;;;;7.03;3.30;;;16.00;99.90;;;;;;5044757;28;20237;-80
2022/04/18 07:46:25;;;;;;;3.40;3.10;;;15.90;99.90;;;;;;5044234;28;20236;-78
2022/04/18 07:48:53;;;;;;;3.55;3.22;;;15.80;99.90;;;;;;5045277;28;20237;-80
2022/04/18 07:51:34;;;;;;;5.10;3.30;;;16.00;99.90;;;;;;5046451;28;20209;-78
2022/04/18 07:54:04;;;;;;;4.28;3.30;;;16.20;99.90;;;;;;5042920;28;21067;-78
2022/04/18 07:56:31;;;;;;;3.70;3.40;;;16.30;99.90;;;;;;5043393;28;20214;-78
2022/04/18 07:58:58;;;;;;;5.03;3.60;;;16.50;99.90;;;;;;5042779;28;20233;-77
2022/04/18 08:01:25;;;;;;;4.40;3.22;;;16.50;99.90;;;;;;5042774;28;20301;-79
2022/04/18 08:03:52;;;;;;;3.75;2.65;;;16.70;99.90;;;;;;5043158;28;20198;-78
2022/04/18 08:06:19;;;;;;;4.55;3.10;;;16.90;99.90;;;;;;5042624;28;20212;-79
2022/04/18 08:08:47;;;;;;;3.42;3.13;;;16.90;99.90;;;;;;5042928;28;20213;-79
2022/04/18 08:11:15;;;;;;;5.93;3.22;;;17.00;99.90;;;;;;5042977;28;20205;-78
2022/04/18 08:13:43;;;;;;;4.57;3.75;;;17.20;99.90;;;;;;5043083;28;20313;-79
2022/04/18 08:16:10;;;;;;;3.53;3.20;;;17.40;99.90;;;;;;5043178;28;20214;-79
2022/04/18 08:18:39;;;;;;;4.90;3.40;;;17.60;99.90;;;;;;5042828;28;20564;-79
2022/04/18 08:21:06;;;;;;;3.38;2.90;;;17.60;99.90;;;;;;5043356;28;20205;-78
2022/04/18 08:23:33;;;;;;;5.93;3.30;;;17.80;99.90;;;;;;5042138;28;20226;-77
2022/04/18 08:26:02;;;;;;;5.07;3.13;;;17.50;99.90;;;;;;5045341;28;20209;-78
2022/04/18 08:28:31;;;;;;;3.50;3.10;;;17.50;99.90;;;;;;5046642;28;20205;-80
2022/04/18 08:30:59;;;;;;;3.75;3.10;;;17.60;99.90;;;;;;5047646;28;20213;-79
2022/04/18 08:33:26;;;;;;;3.72;3.42;;;17.70;99.90;;;;;;5047455;28;20198;-79
2022/04/18 08:35:53;;;;;;;3.30;3.00;;;17.90;99.90;;;;;;5046559;28;20465;-79
2022/04/18 08:38:20;;;;;;;3.83;3.10;;;18.00;99.90;;;;;;5046344;28;20220;-79
2022/04/18 08:40:50;;;;;;;3.22;2.90;;;18.00;99.90;;;;;;5046814;28;20205;-78
2022/04/18 08:43:18;;;;;;;4.82;2.97;;;18.20;99.90;;;;;;5045318;28;20271;-80
2022/04/18 08:45:47;;;;;;;5.07;2.70;;;18.30;99.90;;;;;;5046332;28;20210;-78
2022/04/18 08:53:44;;;;;;;3.20;2.88;;;19.40;99.90;;;;;;5047006;28;20209;-78
2022/04/18 08:56:11;;;;;;;2.80;2.33;;;19.80;99.90;;;;;;5048235;28;20206;-80
2022/04/18 08:58:38;;;;;;;3.30;2.92;;;20.20;99.90;;;;;;5046455;28;20210;-76
2022/04/18 09:01:06;;;;;;;4.30;2.67;;;20.30;99.90;;;;;;5046752;28;20190;-80
2022/04/18 09:03:33;;;;;;;3.00;2.80;;;20.70;99.90;;;;;;5045860;28;20237;-77
2022/04/18 09:06:08;;;;;;;2.53;2.33;;;21.00;99.90;;;;;;5045389;28;20283;-79
2022/04/18 09:08:42;;;;;;;5.28;2.78;;;21.00;99.90;;;;;;5045515;28;20193;-80
2022/04/18 09:11:09;;;;;;;4.40;2.75;;;20.90;99.90;;;;;;5045322;28;20307;-79
2022/04/18 09:13:43;;;;;;;5.05;2.60;;;20.80;99.90;;;;;;5049231;28;20201;-79
2022/04/18 09:16:17;;;;;;;3.08;2.75;;;20.70;99.90;;;;;;5053792;28;20212;-80
2022/04/18 09:18:44;;;;;;;2.65;2.22;;;20.60;99.90;;;;;;5053304;28;20509;-79
2022/04/18 09:21:11;;;;;;;3.15;2.20;;;20.90;99.90;;;;;;5045682;28;20704;-78
2022/04/18 09:23:39;;;;;;;3.08;2.28;;;21.00;99.90;;;;;;5060751;28;20655;-76
2022/04/18 09:26:08;;;;;;;2.47;2.25;;;21.20;99.90;;;;;;5045356;28;20589;-79
2022/04/18 09:28:36;;;;;;;3.38;2.40;;;21.50;99.90;;;;;;5046051;28;20202;-77
2022/04/18 09:31:06;;;;;;;2.75;2.25;;;21.60;99.90;;;;;;5045846;28;20202;-77
2022/04/18 09:33:43;;;;;;;2.70;1.92;;;21.70;99.90;;;;;;5045396;28;20197;-76
2022/04/18 09:36:13;;;;;;;2.67;2.47;;;21.80;99.90;;;;;;5046463;28;20204;-77
2022/04/18 09:38:43;;;;;;;2.67;2.47;;;22.00;99.90;;;;;;5044092;28;20209;-76
2022/04/18 09:41:13;;;;;;;2.55;2.35;;;22.10;99.90;;;;;;5045599;28;20212;-77
2022/04/18 09:43:45;;;;;;;2.42;1.92;;;22.30;99.90;;;;;;5045099;28;20336;-77
2022/04/18 09:46:13;;;;;;;4.57;2.63;;;22.60;99.90;;;;;;5045673;28;20221;-76
2022/04/18 09:48:41;;;;;;;2.30;2.10;;;22.80;99.90;;;;;;5051287;28;20232;-77
2022/04/18 09:51:13;;;;;;;3.08;2.20;;;22.40;99.90;;;;;;5050465;28;20219;-76
2022/04/18 09:53:43;;;;;;;3.50;2.40;;;22.30;99.90;;;;;;5056531;28;20213;-77
2022/04/18 09:56:14;;;;;;;2.33;2.13;;;22.30;99.90;;;;;;5044862;28;20217;-78
2022/04/18 09:58:41;;;;;;;2.50;2.28;;;22.60;99.90;;;;;;5045229;28;20210;-77
2022/04/18 10:01:11;;;;;;;3.58;2.17;;;22.80;99.90;;;;;;5045486;28;20322;-76
2022/04/18 10:03:43;;;;;;;3.30;2.50;;;22.90;99.90;;;;;;5045135;28;20541;-79
2022/04/18 10:06:11;;;;;;;3.03;2.55;;;23.00;99.90;;;;;;5045832;28;20194;-78
2022/04/18 10:08:38;;;;;;;3.08;2.70;;;23.00;99.90;;;;;;5045116;28;20202;-77
2022/04/18 10:11:07;;;;;;;2.83;2.50;;;22.70;99.90;;;;;;5044859;28;20205;-79
2022/04/18 10:13:36;;;;;;;3.45;2.50;;;22.20;99.90;;;;;;5044872;28;20202;-80
2022/04/18 10:16:07;;;;;;;5.80;3.58;;;22.40;99.90;;;;;;5044407;28;20202;-78
2022/04/18 10:18:40;;;;;;;4.03;2.63;;;22.20;99.90;;;;;;5044757;28;20206;-76
2022/04/18 10:21:16;;;;;;;4.45;2.75;;;22.10;99.90;;;;;;5044111;28;20209;-76
2022/04/18 10:24:23;;;;;;;4.18;2.97;;;22.10;99.90;;;;;;5044785;28;20237;-79
2022/04/18 10:27:34;;;;;;;4.13;3.00;;;22.30;99.90;;;;;;5044753;28;20212;-80
2022/04/18 10:30:02;;;;;;;3.40;2.70;;;22.00;99.90;;;;;;5057622;28;20315;-79
2022/04/18 10:32:29;;;;;;;3.50;3.08;;;22.20;99.90;;;;;;5064602;28;20229;-80
2022/04/18 10:34:59;;;;;;;6.43;3.05;;;22.20;99.90;;;;;;5065175;28;20212;-78
2022/04/18 10:37:29;;;;;;;3.13;2.83;;;22.30;99.90;;;;;;5063073;28;20201;-79
2022/04/18 10:39:58;;;;;;;3.35;3.05;;;22.30;99.90;;;;;;5065223;28;20197;-79
2022/04/18 10:42:30;;;;;;;4.05;2.85;;;22.60;99.90;;;;;;5064875;28;20217;-77
2022/04/18 10:45:10;;;;;;;3.35;3.05;;;22.90;99.90;;;;;;5062449;28;20204;-78
2022/04/18 10:48:08;;;;;;;4.40;3.13;;;22.90;99.90;;;;;;5045681;28;20240;-77
2022/04/18 10:50:40;;;;;;;4.13;3.30;;;22.80;99.90;;;;;;5047670;28;20542;-78
2022/04/18 10:53:14;;;;;;;6.05;3.42;;;22.60;99.90;;;;;;5047279;28;20230;-78
2022/04/18 10:56:02;;;;;;;3.28;2.97;;;22.30;99.90;;;;;;5045578;28;20566;-76
2022/04/18 10:58:33;;;;;;;3.38;3.08;;;22.20;99.90;;;;;;5044968;28;20946;-77
2022/04/18 11:01:01;;;;;;;4.00;3.55;;;22.40;99.90;;;;;;5046203;28;20281;-78
2022/04/18 11:04:00;;;;;;;3.25;2.95;;;22.70;99.90;;;;;;5044531;28;20225;-76
2022/04/18 11:06:57;;;;;;;4.97;3.13;;;22.90;99.90;;;;;;5045046;28;20332;-78
2022/04/18 11:09:27;;;;;;;3.13;2.65;;;23.10;99.90;;;;;;5045636;28;20285;-77
2022/04/18 11:12:01;;;;;;;5.45;3.33;;;23.40;99.90;;;;;;5044918;28;20198;-79
2022/04/18 11:14:29;;;;;;;5.30;3.42;;;23.40;99.90;;;;;;5045563;28;20197;-79
2022/04/18 11:16:58;;;;;;;3.70;3.40;;;23.30;99.90;;;;;;5044612;28;20201;-77
2022/04/18 11:19:27;;;;;;;3.67;3.38;;;23.00;99.90;;;;;;5044277;28;20615;-79
2022/04/18 11:22:16;;;;;;;4.20;3.80;;;22.60;99.90;;;;;;5044796;28;20759;-79
2022/04/18 11:25:00;;;;;;;3.60;3.30;;;22.80;99.90;;;;;;5044699;28;20206;-78
2022/04/18 11:27:37;;;;;;;3.55;3.25;;;23.10;99.90;;;;;;5044672;28;20212;-79
2022/04/18 11:30:14;;;;;;;3.65;3.30;;;23.20;99.90;;;;;;5044917;28;20201;-79
2022/04/18 11:32:44;;;;;;;4.10;3.58;;;23.00;99.90;;;;;;5044009;28;20202;-78
2022/04/18 11:35:12;;;;;;;3.95;3.65;;;22.70;99.90;;;;;;5044883;28;20614;-78
2022/04/18 11:37:40;;;;;;;5.47;3.42;;;22.80;99.90;;;;;;5044825;28;20201;-79
2022/04/18 11:40:11;;;;;;;3.53;3.22;;;23.00;99.90;;;;;;5044791;28;20213;-77
2022/04/18 11:42:40;;;;;;;4.32;3.92;;;22.90;99.90;;;;;;5045140;28;20218;-78
2022/04/18 11:45:09;;;;;;;5.40;3.28;;;23.10;99.90;;;;;;5045878;28;20762;-78
2022/04/18 11:47:40;;;;;;;3.67;3.38;;;23.10;99.90;;;;;;5044415;28;20269;-79
2022/04/18 11:50:09;;;;;;;3.58;3.28;;;23.00;99.90;;;;;;5049204;28;20997;-78
2022/04/18 11:52:37;;;;;;;3.70;3.38;;;23.10;99.90;;;;;;5043797;28;20210;-76
2022/04/18 11:55:06;;;;;;;3.17;2.97;;;23.20;99.90;;;;;;5044031;28;20202;-77
2022/04/18 11:57:36;;;;;;;12.55;6.55;;;23.20;99.90;;;;;;5043679;28;20205;-79
2022/04/18 12:00:05;;;;;;;3.78;3.08;;;23.60;99.90;;;;;;5043101;28;20202;-77
2022/04/18 12:08:00;;;;;;;3.70;3.40;;;24.10;99.90;;;;;;5042570;28;20206;-78
2022/04/18 12:10:28;;;;;;;3.92;3.60;;;24.20;99.90;;;;;;5043663;28;20617;-78
2022/04/18 12:12:57;;;;;;;3.72;3.17;;;24.40;99.90;;;;;;5048236;28;20206;-79
2022/04/18 12:15:25;;;;;;;3.50;3.20;;;24.50;99.90;;;;;;5043861;28;20295;-76
2022/04/18 12:17:53;;;;;;;4.03;3.03;;;24.10;99.90;;;;;;5044725;28;20697;-76
2022/04/18 12:20:24;;;;;;;2.80;2.47;;;24.00;99.90;;;;;;5049692;28;20214;-79
2022/04/18 12:22:53;;;;;;;3.42;2.38;;;24.00;99.90;;;;;;5056178;28;20252;-77
2022/04/18 12:25:24;;;;;;;3.28;2.97;;;24.10;99.90;;;;;;5043529;28;20208;-77
2022/04/18 12:27:51;;;;;;;3.20;3.00;;;24.30;99.90;;;;;;5042931;28;20213;-79
2022/04/18 12:30:20;;;;;;;3.08;2.80;;;23.70;99.90;;;;;;5043217;28;20205;-79
2022/04/18 12:32:48;;;;;;;6.13;3.40;;;23.50;99.90;;;;;;5043344;28;20226;-78
2022/04/18 12:35:36;;;;;;;4.20;2.97;;;23.80;99.90;;;;;;5042636;28;20213;-79
2022/04/18 12:38:05;;;;;;;9.10;5.10;;;23.80;99.90;;;;;;5052968;28;20252;-77
2022/04/18 12:40:38;;;;;;;4.20;3.15;;;24.10;99.90;;;;;;5048216;28;20893;-78
2022/04/18 12:43:09;;;;;;;6.53;4.95;;;24.40;99.90;;;;;;5042614;28;20224;-78
2022/04/18 12:45:49;;;;;;;5.68;4.20;;;24.40;99.90;;;;;;5047048;28;20294;-79
2022/04/18 12:48:22;;;;;;;7.25;4.70;;;24.60;99.90;;;;;;5053634;28;20220;-78
2022/04/18 12:50:49;;;;;;;7.35;4.22;;;24.70;99.90;;;;;;5054533;28;20806;-79
2022/04/18 12:53:16;;;;;;;4.60;3.65;;;24.70;99.40;;;;;;5042878;28;20209;-80
2022/04/18 12:55:43;;;;;;;4.70;3.15;;;24.70;99.40;;;;;;5042858;28;20206;-79
2022/04/18 12:58:18;;;;;;;3.58;2.90;;;24.70;98.50;;;;;;5043316;28;20206;-80
2022/04/18 13:00:48;;;;;;;4.45;4.05;;;24.50;99.90;;;;;;5042045;28;20212;-78
2022/04/18 13:03:17;;;;;;;7.53;4.13;;;24.30;98.30;;;;;;5041557;28;20223;-78
2022/04/18 13:05:45;;;;;;;6.90;5.65;;;24.00;98.60;;;;;;5041823;28;20194;-79
2022/04/18 13:08:13;;;;;;;7.57;4.50;;;23.80;98.90;;;;;;5042872;28;20216;-78
2022/04/18 13:10:41;;;;;;;8.00;5.20;;;23.50;99.90;;;;;;5042099;28;20194;-79
2022/04/18 13:13:11;;;;;;;6.53;4.88;;;23.60;99.90;;;;;;5045005;28;20214;-77
2022/04/18 13:15:40;;;;;;;4.55;3.83;;;23.60;99.90;;;;;;5046485;28;20228;-78
2022/04/18 13:18:10;;;;;;;5.95;3.50;;;23.80;99.90;;;;;;5046226;28;20216;-79